Time;durP1;ratioP1;P1;durP2;ratioP2;P2;SDS_P1;SDS_P2;PMS_P1;PMS_P2;Temp;Humidity;BMP_temperature;BMP_pressure;BME280_temperature;BME280_humidity;BME280_pressure;Samples;Min_cycle;Max_cycle;Signal;HPM_P1;HPM_P2
2022/05/08 00:00:28;;;;;;;9.30;8.27;;;;;;;-141.48;100.00;69781.59;5188385;28;20056;-57
2022/05/08 00:02:59;;;;;;;9.88;8.20;;;;;;;-141.48;100.00;69781.59;5188409;28;20029;-56
2022/05/08 00:05:29;;;;;;;8.38;7.70;;;;;;;-141.48;100.00;69781.59;5205812;28;20025;-57
2022/05/08 00:08:00;;;;;;;8.98;8.07;;;;;;;-141.48;100.00;69781.59;5188265;28;20538;-55
2022/05/08 00:10:31;;;;;;;8.10;7.53;;;;;;;-141.48;100.00;69781.59;5188145;28;20409;-55
2022/05/08 00:13:01;;;;;;;6.93;6.40;;;;;;;-141.48;100.00;69781.59;5204643;28;20394;-59
2022/05/08 00:15:32;;;;;;;7.70;7.18;;;;;;;-141.48;100.00;69781.59;5188084;28;20025;-62
2022/05/08 00:18:03;;;;;;;9.45;8.40;;;;;;;-141.48;100.00;69781.59;5187960;28;20110;-58
2022/05/08 00:20:36;;;;;;;8.52;7.78;;;;;;;-141.48;100.00;69781.59;5186830;28;20397;-58
2022/05/08 00:23:07;;;;;;;6.78;6.18;;;;;;;-141.48;100.00;69781.59;5204547;28;20041;-57
2022/05/08 00:25:37;;;;;;;7.15;6.63;;;;;;;-141.48;100.00;69781.59;5187766;28;20025;-57
2022/05/08 00:28:08;;;;;;;9.10;7.70;;;;;;;-141.48;100.00;69781.59;5188147;28;20510;-57
2022/05/08 00:30:38;;;;;;;9.20;8.30;;;;;;;-141.48;100.00;69781.59;5205759;28;20024;-57
2022/05/08 00:33:08;;;;;;;9.90;8.90;;;;;;;-141.48;100.00;69781.59;5204113;28;20029;-55
2022/05/08 00:35:39;;;;;;;7.00;6.50;;;;;;;-141.48;100.00;69781.59;5187768;28;20112;-56
2022/05/08 00:38:09;;;;;;;8.55;7.75;;;;;;;-141.48;100.00;69781.59;5188304;28;20496;-57
2022/05/08 00:40:40;;;;;;;9.10;8.40;;;;;;;-141.48;100.00;69781.59;5188110;28;20489;-57
2022/05/08 00:43:36;;;;;;;7.13;6.63;;;;;;;-141.48;100.00;69781.59;5188134;28;20468;-56
2022/05/08 00:46:12;;;;;;;8.60;7.90;;;;;;;-141.48;100.00;69781.59;5188119;28;20393;-56
2022/05/08 00:48:44;;;;;;;14.07;8.38;;;;;;;-141.48;100.00;69781.59;5188011;28;20025;-55
2022/05/08 00:51:17;;;;;;;8.10;7.53;;;;;;;-141.48;100.00;69781.59;5204186;28;20056;-56
2022/05/08 00:53:50;;;;;;;7.85;7.07;;;;;;;-141.48;100.00;69781.59;5187249;28;20087;-55
2022/05/08 00:56:21;;;;;;;8.15;7.55;;;;;;;-141.48;100.00;69781.59;5205569;28;20025;-57
2022/05/08 00:58:52;;;;;;;10.55;6.82;;;;;;;-141.48;100.00;69781.59;5204356;28;20025;-57
2022/05/08 01:01:22;;;;;;;12.40;7.45;;;;;;;-141.48;100.00;69781.59;5187322;28;20109;-55
2022/05/08 01:03:53;;;;;;;8.23;7.40;;;;;;;-141.48;100.00;69781.59;5203535;28;20557;-56
2022/05/08 01:06:24;;;;;;;8.70;7.30;;;;;;;-141.48;100.00;69781.59;5187647;28;20412;-57
2022/05/08 01:08:54;;;;;;;6.35;5.85;;;;;;;-141.48;100.00;69781.59;5187473;28;20032;-58
2022/05/08 01:11:25;;;;;;;9.27;7.18;;;;;;;-141.48;100.00;69781.59;5203686;28;20025;-58
2022/05/08 01:13:55;;;;;;;8.60;6.75;;;;;;;-141.48;100.00;69781.59;5187045;28;20025;-58
2022/05/08 01:16:26;;;;;;;6.97;6.28;;;;;;;-141.48;100.00;69781.59;5204958;28;20431;-59
2022/05/08 01:18:56;;;;;;;7.63;6.97;;;;;;;-141.48;100.00;69781.59;5203403;28;20174;-57
2022/05/08 01:21:41;;;;;;;8.18;7.50;;;;;;;-141.48;100.00;69781.59;5186899;28;20030;-60
2022/05/08 01:24:20;;;;;;;10.70;6.18;;;;;;;-141.48;100.00;69781.59;5203248;28;20072;-57
2022/05/08 01:26:51;;;;;;;8.77;7.93;;;;;;;-141.48;100.00;69781.59;5203593;28;20040;-57
2022/05/08 01:29:21;;;;;;;7.68;7.10;;;;;;;-141.48;100.00;69781.59;5204744;28;20029;-61
2022/05/08 01:31:53;;;;;;;7.55;6.88;;;;;;;-141.48;100.00;69781.59;5186702;28;20041;-56
2022/05/08 01:34:24;;;;;;;7.35;6.80;;;;;;;-141.48;100.00;69781.59;5186311;28;20040;-59
2022/05/08 01:36:54;;;;;;;7.75;7.20;;;;;;;-141.48;100.00;69781.59;5203417;28;20021;-57
2022/05/08 01:39:24;;;;;;;10.35;7.05;;;;;;;-141.48;100.00;69781.59;5203226;28;20060;-56
2022/05/08 01:41:55;;;;;;;12.07;7.53;;;;;;;-141.48;100.00;69781.59;5203165;28;20025;-56
2022/05/08 01:44:25;;;;;;;7.07;6.47;;;;;;;-141.48;100.00;69781.59;5202900;28;20079;-58
2022/05/08 01:49:45;;;;;;;7.63;6.93;;;;;;;-141.48;100.00;69781.59;5204687;28;20033;-58
2022/05/08 01:52:16;;;;;;;7.13;6.60;;;;;;;-141.48;100.00;69781.59;5203113;28;20029;-58
2022/05/08 01:54:46;;;;;;;7.40;6.72;;;;;;;-141.48;100.00;69781.59;5186341;28;20210;-57
2022/05/08 01:57:16;;;;;;;7.03;6.43;;;;;;;-141.48;100.00;69781.59;5186784;28;20057;-58
2022/05/08 01:59:47;;;;;;;6.43;6.03;;;;;;;-141.48;100.00;69781.59;5186510;28;20076;-60
2022/05/08 02:02:19;;;;;;;7.40;6.85;;;;;;;-141.48;100.00;69781.59;5186445;28;20072;-58
2022/05/08 02:04:50;;;;;;;6.93;6.43;;;;;;;-141.48;100.00;69781.59;5186434;28;20032;-57
2022/05/08 02:07:21;;;;;;;6.93;6.32;;;;;;;-141.48;100.00;69781.59;5186872;28;20026;-56
2022/05/08 02:09:51;;;;;;;6.82;6.22;;;;;;;-141.48;100.00;69781.59;5203302;28;20026;-58
2022/05/08 02:12:22;;;;;;;7.53;6.82;;;;;;;-141.48;100.00;69781.59;5186564;28;20022;-59
2022/05/08 02:14:52;;;;;;;6.25;5.75;;;;;;;-141.48;100.00;69781.59;5186633;28;20378;-58
2022/05/08 02:17:23;;;;;;;7.25;6.63;;;;;;;-141.48;100.00;69781.59;5186462;28;20031;-58
2022/05/08 02:19:53;;;;;;;8.75;7.43;;;;;;;-141.48;100.00;69781.59;5204102;28;20021;-58
2022/05/08 02:22:23;;;;;;;7.30;6.70;;;;;;;-141.48;100.00;69781.59;5202902;28;20127;-58
2022/05/08 02:24:54;;;;;;;7.05;6.38;;;;;;;-141.48;100.00;69781.59;5186183;28;20091;-58
2022/05/08 02:27:25;;;;;;;7.15;6.50;;;;;;;-141.48;100.00;69781.59;5186303;28;20029;-58
2022/05/08 02:29:55;;;;;;;9.43;6.97;;;;;;;-141.48;100.00;69781.59;5186463;28;20024;-57
2022/05/08 02:32:26;;;;;;;7.45;6.95;;;;;;;-141.48;100.00;69781.59;5186189;28;20061;-56
2022/05/08 02:34:56;;;;;;;8.00;7.50;;;;;;;-141.48;100.00;69781.59;5186099;28;20017;-57
2022/05/08 02:37:27;;;;;;;8.23;7.82;;;;;;;-141.48;100.00;69781.59;5186381;28;20068;-58
2022/05/08 02:39:57;;;;;;;8.15;7.38;;;;;;;-141.48;100.00;69781.59;5186050;28;20022;-61
2022/05/08 02:42:28;;;;;;;15.50;8.80;;;;;;;-141.48;100.00;69781.59;5187292;28;20401;-58
2022/05/08 02:44:58;;;;;;;9.65;7.22;;;;;;;-141.48;100.00;69781.59;5189557;28;20031;-58
2022/05/08 02:47:28;;;;;;;8.85;6.78;;;;;;;-141.48;100.00;69781.59;5206359;28;20029;-57
2022/05/08 02:49:59;;;;;;;6.57;6.05;;;;;;;-141.48;100.00;69781.59;5189731;28;20092;-58
2022/05/08 02:52:30;;;;;;;7.47;6.90;;;;;;;-141.48;100.00;69781.59;5189580;28;20025;-57
2022/05/08 02:58:32;;;;;;;8.77;7.57;;;;;;;-141.48;100.00;69781.59;5189228;28;20031;-59
2022/05/08 03:00:41;;;;;;;9.50;8.85;;;;;;;-141.48;100.00;69781.59;5207228;28;20032;-59
2022/05/08 03:03:13;;;;;;;12.07;9.38;;;;;;;-141.48;100.00;69781.59;5189555;28;20029;-56
2022/05/08 03:05:45;;;;;;;9.52;8.82;;;;;;;-141.48;100.00;69781.59;5205797;28;20017;-59
2022/05/08 03:08:17;;;;;;;8.93;8.13;;;;;;;-141.48;100.00;69781.59;5205845;28;20025;-58
2022/05/08 03:13:40;;;;;;;10.80;9.93;;;;;;;-141.48;100.00;69781.59;5206711;28;20040;-58
2022/05/08 03:16:11;;;;;;;9.38;8.63;;;;;;;-141.48;100.00;69781.59;5205592;28;20397;-59
2022/05/08 03:18:41;;;;;;;13.43;8.93;;;;;;;-141.48;100.00;69781.59;5189210;28;20508;-58
2022/05/08 03:21:13;;;;;;;10.38;9.43;;;;;;;-141.48;100.00;69781.59;5205396;28;20061;-57
2022/05/08 03:23:45;;;;;;;9.10;8.27;;;;;;;-141.48;100.00;69781.59;5188684;28;20112;-58
2022/05/08 03:26:19;;;;;;;10.48;9.55;;;;;;;-141.48;100.00;69781.59;5205400;28;20084;-60
2022/05/08 03:28:49;;;;;;;10.88;9.82;;;;;;;-141.48;100.00;69781.59;5189131;28;20106;-57
2022/05/08 03:31:21;;;;;;;9.43;8.85;;;;;;;-141.48;100.00;69781.59;5188950;28;20025;-60
2022/05/08 03:33:51;;;;;;;10.25;8.90;;;;;;;-141.48;100.00;69781.59;5188778;28;20490;-58
2022/05/08 03:36:22;;;;;;;10.13;9.15;;;;;;;-141.48;100.00;69781.59;5189004;28;20038;-57
2022/05/08 03:38:52;;;;;;;11.82;10.77;;;;;;;-141.48;100.00;69781.59;5188748;28;20068;-58
2022/05/08 03:41:23;;;;;;;10.32;9.52;;;;;;;-141.48;100.00;69781.59;5188596;28;20041;-58
2022/05/08 03:43:53;;;;;;;10.88;9.93;;;;;;;-141.48;100.00;69781.59;5188408;28;20111;-58
2022/05/08 03:46:24;;;;;;;11.07;10.07;;;;;;;-141.48;100.00;69781.59;5205297;28;20048;-56
2022/05/08 03:48:55;;;;;;;8.85;8.18;;;;;;;-141.48;100.00;69781.59;5188428;28;20029;-57
2022/05/08 03:51:25;;;;;;;22.25;10.98;;;;;;;-141.48;100.00;69781.59;5188196;28;20108;-58
2022/05/08 03:53:56;;;;;;;14.43;10.50;;;;;;;-141.48;100.00;69781.59;5204261;28;20112;-57
2022/05/08 03:56:27;;;;;;;9.52;8.73;;;;;;;-141.48;100.00;69781.59;5188638;28;20021;-55
2022/05/08 03:58:58;;;;;;;12.52;11.10;;;;;;;-141.48;100.00;69781.59;5188135;28;20025;-54
2022/05/08 04:01:29;;;;;;;11.48;9.80;;;;;;;-141.48;100.00;69781.59;5204698;28;20026;-57
2022/05/08 04:04:02;;;;;;;13.05;11.88;;;;;;;-141.48;100.00;69781.59;5188112;28;20037;-58
2022/05/08 04:06:33;;;;;;;15.50;13.55;;;;;;;-141.48;100.00;69781.59;5188317;28;20038;-54
2022/05/08 04:09:03;;;;;;;12.20;11.00;;;;;;;-141.48;100.00;69781.59;5188371;28;20033;-56
2022/05/08 04:11:34;;;;;;;10.48;9.68;;;;;;;-141.48;100.00;69781.59;5204438;28;20025;-55
2022/05/08 04:14:04;;;;;;;12.82;11.63;;;;;;;-141.48;100.00;69781.59;5187853;28;20116;-58
2022/05/08 04:16:35;;;;;;;14.32;12.32;;;;;;;-141.48;100.00;69781.59;5204666;28;20025;-60
2022/05/08 04:19:07;;;;;;;11.27;10.38;;;;;;;-141.48;100.00;69781.59;5204542;28;20025;-58
2022/05/08 04:21:37;;;;;;;10.43;9.63;;;;;;;-141.48;100.00;69781.59;5205654;28;20485;-58
2022/05/08 04:24:17;;;;;;;12.40;10.55;;;;;;;-141.48;100.00;69781.59;5187534;28;20036;-58
2022/05/08 04:26:47;;;;;;;12.38;11.10;;;;;;;-141.48;100.00;69781.59;5204478;28;20036;-61
2022/05/08 04:29:18;;;;;;;10.20;9.40;;;;;;;-141.48;100.00;69781.59;5204293;28;20120;-58
2022/05/08 04:31:48;;;;;;;12.70;11.57;;;;;;;-141.48;100.00;69781.59;5204219;28;20104;-58
2022/05/08 04:34:19;;;;;;;12.27;11.40;;;;;;;-141.48;100.00;69781.59;5187153;28;20149;-56
2022/05/08 04:36:49;;;;;;;14.60;11.30;;;;;;;-141.48;100.00;69781.59;5204649;28;20072;-56
2022/05/08 04:39:19;;;;;;;11.45;10.52;;;;;;;-141.48;100.00;69781.59;5188036;28;20029;-58
2022/05/08 04:41:50;;;;;;;14.10;12.70;;;;;;;-141.48;100.00;69781.59;5187991;28;20436;-58
2022/05/08 04:44:21;;;;;;;15.13;10.55;;;;;;;-141.48;100.00;69781.59;5204843;28;20032;-59
2022/05/08 04:46:51;;;;;;;11.93;10.05;;;;;;;-141.48;100.00;69781.59;5203826;28;20026;-55
2022/05/08 04:49:22;;;;;;;11.00;9.98;;;;;;;-141.48;100.00;69781.59;5187733;28;20036;-52
2022/05/08 04:51:52;;;;;;;17.38;12.13;;;;;;;-141.48;100.00;69781.59;5187570;28;20412;-55
2022/05/08 04:54:24;;;;;;;12.23;10.95;;;;;;;-141.48;100.00;69781.59;5186998;28;20079;-56
2022/05/08 04:56:54;;;;;;;17.52;10.43;;;;;;;-141.48;100.00;69781.59;5203692;28;20033;-57
2022/05/08 04:59:25;;;;;;;19.73;11.93;;;;;;;-141.48;100.00;69781.59;5173037;28;20022;-57
2022/05/08 05:01:55;;;;;;;11.60;10.60;;;;;;;-141.48;100.00;69781.59;5186803;28;20029;-59
2022/05/08 05:04:26;;;;;;;14.38;13.27;;;;;;;-141.48;100.00;69781.59;5186419;28;20394;-57
2022/05/08 05:06:59;;;;;;;13.63;11.48;;;;;;;-141.48;100.00;69781.59;5203431;28;20624;-54
2022/05/08 05:09:29;;;;;;;11.15;10.18;;;;;;;-141.48;100.00;69781.59;5203291;28;20500;-54
2022/05/08 05:12:03;;;;;;;12.38;11.32;;;;;;;-141.48;100.00;69781.59;5204294;28;20025;-60
2022/05/08 05:14:33;;;;;;;12.85;11.85;;;;;;;-141.48;100.00;69781.59;5203315;28;20109;-56
2022/05/08 05:17:05;;;;;;;12.25;11.10;;;;;;;-141.48;100.00;69781.59;5203882;28;20029;-57
2022/05/08 05:19:35;;;;;;;12.60;10.60;;;;;;;-141.48;100.00;69781.59;5187163;28;20037;-57
2022/05/08 05:22:06;;;;;;;14.52;10.45;;;;;;;-141.48;100.00;69781.59;5186701;28;20025;-59
2022/05/08 05:24:36;;;;;;;13.80;11.85;;;;;;;-141.48;100.00;69781.59;5186655;28;20052;-56
2022/05/08 05:27:07;;;;;;;13.38;10.77;;;;;;;-141.48;100.00;69781.59;5204460;28;20056;-56
2022/05/08 05:29:37;;;;;;;10.48;9.57;;;;;;;-141.48;100.00;69781.59;5204194;28;20545;-55
2022/05/08 05:32:08;;;;;;;10.50;9.50;;;;;;;-141.48;100.00;69781.59;5187730;28;20113;-60
2022/05/08 05:34:38;;;;;;;10.88;9.90;;;;;;;-141.48;100.00;69781.59;5185839;28;20022;-55
2022/05/08 05:37:09;;;;;;;11.20;9.50;;;;;;;-141.48;100.00;69781.59;5203359;28;20028;-59
2022/05/08 05:39:39;;;;;;;10.02;9.05;;;;;;;-141.48;100.00;69781.59;5186556;28;20039;-57
2022/05/08 05:42:10;;;;;;;12.30;9.52;;;;;;;-141.48;100.00;69781.59;5186397;28;20071;-56
2022/05/08 05:44:40;;;;;;;11.57;9.98;;;;;;;-141.48;100.00;69781.59;5186190;28;20029;-57
2022/05/08 05:50:00;;;;;;;10.50;7.20;;;;;;;-141.48;100.00;69781.59;5204775;28;20095;-59
2022/05/08 05:52:34;;;;;;;10.02;8.63;;;;;;;-141.48;100.00;69781.59;5204340;28;20025;-57
2022/05/08 05:55:06;;;;;;;13.13;8.95;;;;;;;-141.48;100.00;69781.59;5202831;28;20112;-58
2022/05/08 05:57:38;;;;;;;9.07;8.07;;;;;;;-141.48;100.00;69781.59;5186918;28;20053;-59
2022/05/08 06:00:12;;;;;;;8.77;8.18;;;;;;;-141.48;100.00;69781.59;5186212;28;20030;-58
2022/05/08 06:02:44;;;;;;;18.48;10.15;;;;;;;-141.48;100.00;69781.59;5202930;28;20032;-59
2022/05/08 06:05:15;;;;;;;12.90;7.80;;;;;;;-141.48;100.00;69781.59;5186167;28;20478;-57
2022/05/08 06:07:45;;;;;;;9.45;7.03;;;;;;;-141.48;100.00;69781.59;5186275;28;20030;-57
2022/05/08 06:10:16;;;;;;;14.13;8.68;;;;;;;-141.48;100.00;69781.59;5186214;28;20021;-56
2022/05/08 06:12:46;;;;;;;10.15;9.18;;;;;;;-141.48;100.00;69781.59;5186198;28;20061;-58
2022/05/08 06:15:17;;;;;;;8.80;7.65;;;;;;;-141.48;100.00;69781.59;5186076;28;20052;-60
2022/05/08 06:17:47;;;;;;;18.90;8.45;;;;;;;-141.48;100.00;69781.59;5189346;28;20064;-56
2022/05/08 06:20:18;;;;;;;10.70;8.82;;;;;;;-141.48;100.00;69781.59;5208154;28;20026;-58
2022/05/08 06:22:48;;;;;;;16.25;8.35;;;;;;;-141.48;100.00;69781.59;5190370;28;20108;-58
2022/05/08 06:25:19;;;;;;;18.80;9.80;;;;;;;-141.48;100.00;69781.59;5206491;28;20090;-58
2022/05/08 06:27:49;;;;;;;10.55;7.20;;;;;;;-141.48;100.00;69781.59;5206629;28;20021;-55
2022/05/08 06:30:20;;;;;;;16.85;8.30;;;;;;;-141.48;100.00;69781.59;5190356;28;20021;-58
2022/05/08 06:32:50;;;;;;;10.27;6.85;;;;;;;-141.48;100.00;69781.59;5206589;28;20025;-57
2022/05/08 06:35:21;;;;;;;20.48;8.35;;;;;;;-141.48;100.00;69781.59;5189668;28;20029;-58
2022/05/08 06:37:51;;;;;;;12.02;8.35;;;;;;;-141.48;100.00;69781.59;5190040;28;20512;-58
2022/05/08 06:40:22;;;;;;;17.67;8.57;;;;;;;-141.48;100.00;69781.59;5206649;28;20029;-56
2022/05/08 06:42:52;;;;;;;7.88;6.53;;;;;;;-141.48;100.00;69781.59;5206417;28;20140;-59
2022/05/08 06:45:24;;;;;;;17.58;7.32;;;;;;;-141.48;100.00;69781.59;5207360;28;20029;-60
2022/05/08 06:47:55;;;;;;;16.25;7.13;;;;;;;-141.48;100.00;69781.59;5189803;28;20021;-57
2022/05/08 06:50:25;;;;;;;11.25;5.95;;;;;;;-141.48;100.00;69781.59;5189715;28;20474;-59
2022/05/08 06:52:56;;;;;;;7.72;6.15;;;;;;;-141.48;100.00;69781.59;5189856;28;20375;-56
2022/05/08 06:55:26;;;;;;;14.43;5.85;;;;;;;-141.48;100.00;69781.59;5189506;28;20032;-56
2022/05/08 06:57:56;;;;;;;5.95;5.30;;;;;;;-141.48;100.00;69781.59;5206446;28;20029;-57
2022/05/08 07:03:16;;;;;;;8.98;7.82;;;;;;;-141.48;100.00;69781.59;5207242;28;20037;-60
2022/05/08 07:05:47;;;;;;;11.93;8.18;;;;;;;-141.48;100.00;69781.59;5189344;28;20033;-57
2022/05/08 07:08:18;;;;;;;6.32;5.90;;;;;;;-141.48;100.00;69781.59;5189397;28;20045;-55
2022/05/08 07:10:49;;;;;;;10.88;7.32;;;;;;;-141.48;100.00;69781.59;5189163;28;20022;-59
2022/05/08 07:13:26;;;;;;;6.38;5.78;;;;;;;-141.48;100.00;69781.59;5189224;28;20516;-57
2022/05/08 07:15:56;;;;;;;10.60;6.03;;;;;;;-141.48;100.00;69781.59;5189385;28;20022;-58
2022/05/08 07:18:27;;;;;;;9.10;4.68;;;;;;;-141.48;100.00;69781.59;5189511;28;20040;-57
2022/05/08 07:20:58;;;;;;;20.48;7.18;;;;;;;-141.48;100.00;69781.59;5188843;28;20029;-57
2022/05/08 07:23:28;;;;;;;11.90;5.20;;;;;;;-141.48;100.00;69781.59;5188700;28;20106;-55
2022/05/08 07:25:58;;;;;;;7.22;6.50;;;;;;;-141.48;100.00;69781.59;5206658;28;20028;-54
2022/05/08 07:28:29;;;;;;;7.80;5.57;;;;;;;-141.48;100.00;69781.59;5205007;28;20044;-56
2022/05/08 07:31:01;;;;;;;11.68;4.78;;;;;;;-141.48;100.00;69781.59;5205454;28;20017;-55
2022/05/08 07:33:34;;;;;;;6.13;5.63;;;;;;;-141.48;100.00;69781.59;5204938;28;20488;-57
2022/05/08 07:36:15;;;;;;;10.38;6.70;;;;;;;-141.48;100.00;69781.59;5188901;28;20027;-56
2022/05/08 07:38:46;;;;;;;7.40;4.88;;;;;;;-141.48;100.00;69781.59;5188883;28;20025;-56
2022/05/08 07:41:18;;;;;;;13.90;6.22;;;;;;;-141.48;100.00;69781.59;5205258;28;20025;-53
2022/05/08 07:43:48;;;;;;;16.30;7.57;;;;;;;-141.48;100.00;69781.59;5204676;28;20030;-55
2022/05/08 07:46:19;;;;;;;5.95;4.65;;;;;;;-141.48;100.00;69781.59;5205438;28;20401;-53
2022/05/08 07:48:49;;;;;;;7.57;4.82;;;;;;;-141.48;100.00;69781.59;5188679;28;20025;-53
2022/05/08 07:51:20;;;;;;;11.35;6.25;;;;;;;-141.48;100.00;69781.59;5188702;28;20128;-54
2022/05/08 07:53:51;;;;;;;7.57;5.13;;;;;;;-141.48;100.00;69781.59;5188339;28;20036;-56
2022/05/08 07:56:21;;;;;;;5.38;4.97;;;;;;;-141.48;100.00;69781.59;5205164;28;20056;-57
2022/05/08 07:58:52;;;;;;;9.30;5.45;;;;;;;-141.48;100.00;69781.59;5188516;28;20419;-53
2022/05/08 08:01:22;;;;;;;22.00;6.85;;;;;;;-141.48;100.00;69781.59;5188187;28;20032;-53
2022/05/08 08:03:53;;;;;;;13.75;5.45;;;;;;;-141.48;100.00;69781.59;5188190;28;20125;-54
2022/05/08 08:06:23;;;;;;;10.88;5.47;;;;;;;-141.48;100.00;69781.59;5206218;28;20022;-59
2022/05/08 08:08:54;;;;;;;4.25;4.05;;;;;;;-141.48;100.00;69781.59;5204889;28;20029;-58
2022/05/08 08:11:25;;;;;;;6.00;4.90;;;;;;;-141.48;100.00;69781.59;5204936;28;20021;-54
2022/05/08 08:13:55;;;;;;;7.00;3.85;;;;;;;-141.48;100.00;69781.59;5187752;28;20108;-57
2022/05/08 08:16:26;;;;;;;4.72;4.30;;;;;;;-141.48;100.00;69781.59;5187573;28;20027;-56
2022/05/08 08:18:57;;;;;;;8.30;4.47;;;;;;;-141.48;100.00;69781.59;5187256;28;20059;-58
2022/05/08 08:21:28;;;;;;;7.20;5.97;;;;;;;-141.48;100.00;69781.59;5187205;28;20053;-53
2022/05/08 08:23:59;;;;;;;11.25;6.95;;;;;;;-141.48;100.00;69781.59;5187754;28;20493;-58
2022/05/08 08:26:29;;;;;;;5.22;4.80;;;;;;;-141.48;100.00;69781.59;5205804;28;20029;-57
2022/05/08 08:29:00;;;;;;;6.10;4.18;;;;;;;-141.48;100.00;69781.59;5188215;28;20021;-53
2022/05/08 08:31:30;;;;;;;9.82;5.18;;;;;;;-141.48;100.00;69781.59;5187797;28;20549;-56
2022/05/08 08:34:01;;;;;;;5.30;3.65;;;;;;;-141.48;100.00;69781.59;5187175;28;20025;-55
2022/05/08 08:36:31;;;;;;;5.22;4.55;;;;;;;-141.48;100.00;69781.59;5188155;28;20021;-55
2022/05/08 08:39:03;;;;;;;10.82;5.13;;;;;;;-141.48;100.00;69781.59;5204799;28;20056;-57
2022/05/08 08:41:35;;;;;;;9.18;4.18;;;;;;;-141.48;100.00;69781.59;5187525;28;20029;-57
2022/05/08 08:49:51;;;;;;;4.20;3.67;;;;;;;-141.48;100.00;69781.59;5206125;28;20445;-58
2022/05/08 08:52:22;;;;;;;11.25;4.75;;;;;;;-141.48;100.00;69781.59;5188094;28;20030;-56
2022/05/08 08:54:53;;;;;;;5.40;4.75;;;;;;;-141.48;100.00;69781.59;5188151;28;20399;-55
2022/05/08 08:57:23;;;;;;;11.40;4.68;;;;;;;-141.48;100.00;69781.59;5188552;28;20040;-57
2022/05/08 08:59:54;;;;;;;7.20;4.95;;;;;;;-141.48;100.00;69781.59;5188265;28;20112;-58
2022/05/08 09:02:24;;;;;;;4.70;3.20;;;;;;;-141.48;100.00;69781.59;5188720;28;20021;-57
2022/05/08 09:04:55;;;;;;;10.82;5.15;;;;;;;-141.48;100.00;69781.59;5188203;28;20018;-56
2022/05/08 09:07:43;;;;;;;6.13;5.53;;;;;;;-141.48;100.00;69781.59;5187971;28;20033;-55
2022/05/08 09:10:19;;;;;;;9.55;4.43;;;;;;;-141.48;100.00;69781.59;5188124;28;20071;-55
2022/05/08 09:12:52;;;;;;;6.25;5.57;;;;;;;-141.48;100.00;69781.59;5188163;28;20179;-55
2022/05/08 09:15:25;;;;;;;14.23;5.53;;;;;;;-141.48;100.00;69781.59;5205273;28;20018;-59
2022/05/08 09:17:56;;;;;;;11.82;5.28;;;;;;;-141.48;100.00;69781.59;5187960;28;20067;-59
2022/05/08 09:20:40;;;;;;;10.32;6.07;;;;;;;-141.48;100.00;69781.59;5188111;28;20030;-55
2022/05/08 09:23:21;;;;;;;9.77;5.13;;;;;;;-141.48;100.00;69781.59;5187962;28;20393;-58
2022/05/08 09:26:02;;;;;;;6.95;4.65;;;;;;;-141.48;100.00;69781.59;5204182;28;20025;-54
2022/05/08 09:28:40;;;;;;;8.70;4.85;;;;;;;-141.48;100.00;69781.59;5204289;28;20034;-59
2022/05/08 09:31:12;;;;;;;6.72;3.47;;;;;;;-141.48;100.00;69781.59;5187731;28;20048;-58
2022/05/08 09:33:45;;;;;;;8.50;4.35;;;;;;;-141.48;100.00;69781.59;5198780;23;20490;-56
2022/05/08 09:36:22;;;;;;;5.75;4.78;;;;;;;-141.48;100.00;69781.59;5164478;28;20022;-54
2022/05/08 09:38:53;;;;;;;8.52;4.28;;;;;;;-141.48;100.00;69781.59;5147770;28;20030;-57
2022/05/08 09:41:26;;;;;;;5.38;4.32;;;;;;;-141.48;100.00;69781.59;5165346;28;20034;-56
2022/05/08 09:44:13;;;;;;;6.40;4.13;;;;;;;-141.48;100.00;69781.59;5147679;28;20100;-57
2022/05/08 09:46:45;;;;;;;16.58;5.45;;;;;;;-141.48;100.00;69781.59;5147822;28;20117;-57
2022/05/08 09:49:20;;;;;;;13.63;6.35;;;;;;;-141.48;100.00;69781.59;5148154;28;20037;-57
2022/05/08 09:51:53;;;;;;;7.90;3.83;;;;;;;-141.48;100.00;69781.59;5149420;28;20474;-56
2022/05/08 09:54:26;;;;;;;7.93;3.45;;;;;;;-141.48;100.00;69781.59;5151715;28;20490;-57
2022/05/08 09:56:59;;;;;;;8.18;3.90;;;;;;;-141.48;100.00;69781.59;5169353;28;20026;-56
2022/05/08 09:59:30;;;;;;;4.05;3.42;;;;;;;-141.48;100.00;69781.59;5151803;28;20062;-56
2022/05/08 10:02:03;;;;;;;10.38;5.15;;;;;;;-141.48;100.00;69781.59;5151934;28;20045;-56
2022/05/08 10:04:35;;;;;;;7.93;5.03;;;;;;;-141.48;100.00;69781.59;5151759;28;20360;-55
2022/05/08 10:07:06;;;;;;;9.18;5.72;;;;;;;-141.48;100.00;69781.59;5151737;28;20045;-55
2022/05/08 10:15:35;;;;;;;7.90;2.70;;;;;;;-141.48;100.00;69781.59;5168800;28;20094;-57
2022/05/08 10:18:27;;;;;;;10.90;4.50;;;;;;;-141.48;100.00;69781.59;5167879;28;20081;-56
2022/05/08 10:21:08;;;;;;;3.97;3.03;;;;;;;-141.48;100.00;69781.59;5151208;28;20507;-55
2022/05/08 10:23:47;;;;;;;5.35;4.88;;;;;;;-141.48;100.00;69781.59;5151231;28;20133;-55
2022/05/08 10:26:22;;;;;;;10.70;3.67;;;;;;;-141.48;100.00;69781.59;5151169;28;20033;-56
2022/05/08 10:29:02;;;;;;;3.70;3.42;;;;;;;-141.48;100.00;69781.59;5151241;28;20026;-58
2022/05/08 10:31:51;;;;;;;8.88;5.57;;;;;;;-141.48;100.00;69781.59;5150384;28;20029;-53
2022/05/08 10:34:37;;;;;;;5.43;2.85;;;;;;;-141.48;100.00;69781.59;5149433;28;20053;-54
2022/05/08 10:37:13;;;;;;;6.00;3.25;;;;;;;-141.48;100.00;69781.59;5150087;28;20023;-56
2022/05/08 10:39:46;;;;;;;5.70;3.28;;;;;;;-141.48;100.00;69781.59;5149703;28;20038;-57
2022/05/08 10:42:29;;;;;;;6.75;3.72;;;;;;;-141.48;100.00;69781.59;5149836;28;20096;-56
2022/05/08 10:45:00;;;;;;;7.90;3.40;;;;;;;-141.48;100.00;69781.59;5149716;28;20113;-56
2022/05/08 10:50:06;;;;;;;3.72;2.53;;;;;;;-141.48;100.00;69781.59;5167659;28;20038;-57
2022/05/08 10:52:41;;;;;;;4.22;3.83;;;;;;;-141.48;100.00;69781.59;5150130;28;20030;-56
2022/05/08 10:55:16;;;;;;;5.97;3.35;;;;;;;-141.48;100.00;69781.59;5149598;28;20466;-54
2022/05/08 10:57:48;;;;;;;5.55;3.50;;;;;;;-141.48;100.00;69781.59;5149712;28;20026;-54
2022/05/08 11:00:19;;;;;;;3.03;2.75;;;;;;;-141.48;100.00;69781.59;5149401;28;20038;-54
2022/05/08 11:02:55;;;;;;;10.30;3.85;;;;;;;-141.48;100.00;69781.59;5148948;28;20060;-55
2022/05/08 11:05:31;;;;;;;7.22;3.28;;;;;;;-141.48;100.00;69781.59;5149527;28;20117;-56
2022/05/08 11:08:04;;;;;;;4.18;2.60;;;;;;;-141.48;100.00;69781.59;5149623;28;20502;-54
2022/05/08 11:10:37;;;;;;;9.32;4.35;;;;;;;-141.48;100.00;69781.59;5149540;28;20026;-56
2022/05/08 11:13:12;;;;;;;5.03;3.42;;;;;;;-141.48;100.00;69781.59;5149885;28;20063;-56
2022/05/08 11:15:42;;;;;;;4.65;3.15;;;;;;;-141.48;100.00;69781.59;5150192;28;20026;-57
2022/05/08 11:18:26;;;;;;;6.38;3.88;;;;;;;-141.48;100.00;69781.59;5150575;28;20034;-57
2022/05/08 11:21:00;;;;;;;2.78;2.38;;;;;;;-141.48;100.00;69781.59;5150292;28;20033;-57
2022/05/08 11:23:31;;;;;;;3.60;3.15;;;;;;;-141.48;100.00;69781.59;5150070;28;20109;-57
2022/05/08 11:26:07;;;;;;;6.45;2.55;;;;;;;-141.48;100.00;69781.59;5150482;28;20088;-57
2022/05/08 11:28:53;;;;;;;6.43;3.30;;;;;;;-141.48;100.00;69781.59;5150916;28;20437;-55
2022/05/08 11:31:25;;;;;;;24.90;3.72;;;;;;;-141.48;100.00;69781.59;5151421;28;20117;-57
2022/05/08 11:36:46;;;;;;;5.57;3.63;;;;;;;-141.48;100.00;69781.59;5168160;28;20096;-58
2022/05/08 11:39:18;;;;;;;4.45;2.65;;;;;;;-141.48;100.00;69781.59;5149910;28;20030;-56
2022/05/08 11:41:50;;;;;;;3.00;2.72;;;;;;;-141.48;100.00;69781.59;5149124;28;20112;-57
2022/05/08 11:44:25;;;;;;;2.88;2.63;;;;;;;-141.48;100.00;69781.59;5149003;28;20033;-57
2022/05/08 11:46:57;;;;;;;14.35;2.90;;;;;;;-141.48;100.00;69781.59;5149026;28;20061;-57
2022/05/08 11:49:29;;;;;;;2.80;2.60;;;;;;;-141.48;100.00;69781.59;5166454;28;20026;-55
2022/05/08 11:52:02;;;;;;;3.90;2.42;;;;;;;-141.48;100.00;69781.59;5149166;28;20031;-54
2022/05/08 11:54:35;;;;;;;5.60;2.45;;;;;;;-141.48;100.00;69781.59;5148746;28;20022;-57
2022/05/08 11:57:08;;;;;;;6.18;3.40;;;;;;;-141.48;100.00;69781.59;5149130;28;20027;-57